Terminal Aerodrome Forecast
Issued by NWS

Home | Current Version | Previous Version | Text Only | Print | Product List | Glossary On
Versions: 1 2 3 4 5 6 7 8 9 10 11 12
726
FTUS44 KEPZ 081158
TAFTCS
TAF
KTCS 081158Z 0812/0912 36009KT P6SM FEW250
     FM081800 12010KT P6SM SCT250
     FM090300 32007KT P6SM SCT250=

USA.gov is the U.S. government's official web portal to all federal, state and local government web resources and services.